createdAt,value
2023-03-04T00:00:18.000Z,1017.714792
2023-03-04T00:00:52.000Z,1017.8163840000001
2023-03-04T00:01:15.000Z,1017.8163840000001
2023-03-04T00:01:38.000Z,1017.714792
2023-03-04T00:02:03.000Z,1017.714792
2023-03-04T00:02:28.000Z,1017.714792
2023-03-04T00:02:51.000Z,1017.714792
2023-03-04T00:03:20.000Z,1017.714792
2023-03-04T00:03:44.000Z,1017.714792
2023-03-04T00:04:08.000Z,1017.714792
2023-03-04T00:04:43.000Z,1017.6132000000001
2023-03-04T00:05:13.000Z,1017.6132000000001
2023-03-04T00:05:44.000Z,1017.6132000000001
2023-03-04T00:06:03.000Z,1017.6132000000001
2023-03-04T00:06:25.000Z,1017.714792
2023-03-04T00:06:49.000Z,1017.714792
2023-03-04T00:07:23.000Z,1017.714792
2023-03-04T00:07:53.000Z,1017.8163840000001
2023-03-04T00:08:28.000Z,1017.714792
2023-03-04T00:08:58.000Z,1017.714792
2023-03-04T00:09:28.000Z,1017.8163840000001
2023-03-04T00:09:44.000Z,1017.8163840000001
2023-03-04T00:10:03.000Z,1017.8163840000001
2023-03-04T00:10:26.000Z,1018.019568
2023-03-04T00:10:53.000Z,1018.019568
2023-03-04T00:11:23.000Z,1018.019568
2023-03-04T00:12:03.000Z,1017.8163840000001
2023-03-04T00:12:29.000Z,1017.8163840000001
2023-03-04T00:12:38.000Z,1017.9179760000001
2023-03-04T00:12:59.000Z,1017.714792
2023-03-04T00:13:00.000Z,1017.8163840000001
2023-03-04T00:13:22.000Z,1017.714792
2023-03-04T00:13:28.000Z,1017.9179760000001
2023-03-04T00:13:57.000Z,1017.714792
2023-03-04T00:14:27.000Z,1017.6132000000001
2023-03-04T00:15:03.000Z,1017.6132000000001
2023-03-04T00:15:33.000Z,1017.6132000000001
2023-03-04T00:16:02.000Z,1017.6132000000001
2023-03-04T00:16:18.000Z,1017.6132000000001
2023-03-04T00:16:37.000Z,1017.6132000000001
2023-03-04T00:16:59.000Z,1017.714792
2023-03-04T00:17:22.000Z,1017.714792
2023-03-04T00:17:42.000Z,1017.714792
2023-03-04T00:17:58.000Z,1017.714792
2023-03-04T00:18:27.000Z,1017.714792
2023-03-04T00:19:02.000Z,1017.714792
2023-03-04T00:19:32.000Z,1017.714792
2023-03-04T00:20:03.000Z,1017.8163840000001
2023-03-04T00:20:37.000Z,1017.8163840000001
2023-03-04T00:20:59.000Z,1017.6132000000001
2023-03-04T00:21:22.000Z,1017.6132000000001
2023-03-04T00:21:43.000Z,1017.6132000000001
2023-03-04T00:22:12.000Z,1017.6132000000001
2023-03-04T00:22:42.000Z,1017.6132000000001
2023-03-04T00:23:17.000Z,1017.6132000000001
2023-03-04T00:23:47.000Z,1017.6132000000001
2023-03-04T00:24:02.000Z,1017.714792
2023-03-04T00:24:37.000Z,1017.714792
2023-03-04T00:25:00.000Z,1017.5454719999999
2023-03-04T00:25:27.000Z,1017.5454719999999
2023-03-04T00:25:57.000Z,1017.5454719999999
2023-03-04T00:26:27.000Z,1017.714792
2023-03-04T00:27:02.000Z,1017.714792
2023-03-04T00:27:32.000Z,1017.714792
2023-03-04T00:28:02.000Z,1017.714792
2023-03-04T00:28:37.000Z,1017.714792
2023-03-04T00:28:59.000Z,1017.714792
2023-03-04T00:29:22.000Z,1017.714792
2023-03-04T00:29:57.000Z,1017.714792
2023-03-04T00:30:27.000Z,1017.8163840000001
2023-03-04T00:31:02.000Z,1017.714792
2023-03-04T00:31:33.000Z,1017.714792
2023-03-04T00:32:02.000Z,1017.714792
2023-03-04T00:32:18.000Z,1017.714792
2023-03-04T00:32:37.000Z,1017.714792
2023-03-04T00:32:59.000Z,1017.6132000000001
2023-03-04T00:33:22.000Z,1017.6132000000001
2023-03-04T00:33:43.000Z,1017.6132000000001
2023-03-04T00:35:25.000Z,1017.714792
2023-03-04T00:35:53.000Z,1017.714792
2023-03-04T00:36:28.000Z,1017.6132000000001
2023-03-04T00:36:58.000Z,1017.6132000000001
2023-03-04T00:37:28.000Z,1017.6132000000001
2023-03-04T00:37:44.000Z,1017.6132000000001
2023-03-04T00:38:03.000Z,1017.6132000000001
2023-03-04T00:38:25.000Z,1017.714792
2023-03-04T00:38:48.000Z,1017.714792
2023-03-04T00:39:09.000Z,1017.714792
2023-03-04T00:39:36.000Z,1017.44388
2023-03-04T00:39:53.000Z,1017.44388
2023-03-04T00:40:30.000Z,1017.714792
2023-03-04T00:41:01.000Z,1017.714792
2023-03-04T00:41:28.000Z,1017.5454719999999
2023-03-04T00:41:44.000Z,1017.5454719999999
2023-03-04T00:42:03.000Z,1017.5454719999999
2023-03-04T00:42:23.000Z,1017.6132000000001
2023-03-04T00:42:48.000Z,1017.6132000000001
2023-03-04T00:43:09.000Z,1017.6132000000001
2023-03-04T00:43:38.000Z,1017.714792
2023-03-04T00:44:08.000Z,1017.714792
2023-03-04T00:44:43.000Z,1017.5454719999999
2023-03-04T00:45:13.000Z,1017.5454719999999
2023-03-04T00:45:44.000Z,1017.5454719999999
2023-03-04T00:46:03.000Z,1017.5454719999999
2023-03-04T00:46:25.000Z,1017.342288
2023-03-04T00:46:49.000Z,1017.342288
2023-03-04T00:47:23.000Z,1017.342288
2023-03-04T00:47:53.000Z,1017.6132000000001
2023-03-04T00:48:28.000Z,1017.5454719999999
2023-03-04T00:48:58.000Z,1017.5454719999999
2023-03-04T00:49:28.000Z,1017.44388
2023-03-04T00:49:44.000Z,1017.44388
2023-03-04T00:50:03.000Z,1017.44388
2023-03-04T00:50:25.000Z,1017.6132000000001
2023-03-04T00:50:48.000Z,1017.6132000000001
2023-03-04T00:51:24.000Z,1017.6132000000001
2023-03-04T00:51:53.000Z,1017.5454719999999
2023-03-04T00:52:28.000Z,1017.5454719999999
2023-03-04T00:52:58.000Z,1017.5454719999999
2023-03-04T00:53:28.000Z,1017.5454719999999
2023-03-04T00:54:03.000Z,1017.5454719999999
2023-03-04T00:54:25.000Z,1017.342288
2023-03-04T00:54:53.000Z,1017.342288
2023-03-04T00:55:33.000Z,1017.5454719999999
2023-03-04T00:55:56.000Z,1017.5454719999999
2023-03-04T00:56:23.000Z,1017.342288
2023-03-04T00:56:53.000Z,1017.342288
2023-03-04T00:57:23.000Z,1017.342288
2023-03-04T00:57:50.000Z,1017.5454719999999
2023-03-04T00:58:16.000Z,1017.5454719999999
2023-03-04T00:58:43.000Z,1017.342288
2023-03-04T00:59:09.000Z,1017.342288
2023-03-04T00:59:33.000Z,1017.5454719999999
2023-03-04T00:59:56.000Z,1017.5454719999999
2023-03-04T01:00:29.000Z,1017.5454719999999
2023-03-04T01:00:58.000Z,1017.5454719999999
2023-03-04T01:01:28.000Z,1017.44388
2023-03-04T01:01:44.000Z,1017.44388
2023-03-04T01:02:03.000Z,1017.44388
2023-03-04T01:02:25.000Z,1017.5454719999999
2023-03-04T01:02:48.000Z,1017.5454719999999
2023-03-04T01:03:08.000Z,1017.5454719999999
2023-03-04T01:03:36.000Z,1017.44388
2023-03-04T01:03:53.000Z,1017.44388
2023-03-04T01:04:28.000Z,1017.5454719999999
2023-03-04T01:04:59.000Z,1017.5454719999999
2023-03-04T01:05:28.000Z,1017.5454719999999
2023-03-04T01:05:44.000Z,1017.5454719999999
2023-03-04T01:06:04.000Z,1017.5454719999999
2023-03-04T01:06:34.000Z,1017.44388
2023-03-04T01:07:08.000Z,1017.44388
2023-03-04T01:07:25.000Z,1017.5454719999999
2023-03-04T01:07:53.000Z,1017.5454719999999
2023-03-04T01:08:28.000Z,1017.6132000000001
2023-03-04T01:08:58.000Z,1017.6132000000001
2023-03-04T01:09:28.000Z,1017.5454719999999
2023-03-04T01:09:44.000Z,1017.5454719999999
2023-03-04T01:10:03.000Z,1017.5454719999999
2023-03-04T01:10:25.000Z,1017.44388
2023-03-04T01:10:48.000Z,1017.44388
2023-03-04T01:11:23.000Z,1017.44388
2023-03-04T01:11:53.000Z,1017.240696
2023-03-04T01:12:28.000Z,1017.240696
2023-03-04T01:12:58.000Z,1017.240696
2023-03-04T01:13:28.000Z,1017.44388
2023-03-04T01:14:03.000Z,1017.44388
2023-03-04T01:14:28.000Z,1017.240696
2023-03-04T01:14:51.000Z,1017.240696
2023-03-04T01:15:20.000Z,1017.240696
2023-03-04T01:15:53.000Z,1017.44388
2023-03-04T01:16:38.000Z,1017.44388
2023-03-04T01:17:01.000Z,1017.44388
2023-03-04T01:17:28.000Z,1017.5454719999999
2023-03-04T01:18:04.000Z,1017.5454719999999
2023-03-04T01:18:26.000Z,1017.44388
2023-03-04T01:18:53.000Z,1017.44388
2023-03-04T01:19:23.000Z,1017.44388
2023-03-04T01:19:53.000Z,1017.5454719999999
2023-03-04T01:20:28.000Z,1017.5454719999999
2023-03-04T01:20:58.000Z,1017.5454719999999
2023-03-04T01:21:28.000Z,1017.44388
2023-03-04T01:22:03.000Z,1017.44388
2023-03-04T01:22:25.000Z,1017.44388
2023-03-04T01:22:48.000Z,1017.44388
2023-03-04T01:23:23.000Z,1017.44388
2023-03-04T01:23:53.000Z,1017.44388
2023-03-04T01:24:28.000Z,1017.44388
2023-03-04T01:24:58.000Z,1017.44388
2023-03-04T01:25:24.000Z,1017.44388
2023-03-04T01:25:49.000Z,1017.44388
2023-03-04T01:26:18.000Z,1017.44388
2023-03-04T01:26:53.000Z,1017.44388
2023-03-04T01:27:33.000Z,1017.6132000000001
2023-03-04T01:27:56.000Z,1017.6132000000001
2023-03-04T01:28:29.000Z,1017.44388
2023-03-04T01:28:58.000Z,1017.44388
2023-03-04T01:29:28.000Z,1017.342288
2023-03-04T01:30:03.000Z,1017.342288
2023-03-04T01:30:25.000Z,1017.240696
2023-03-04T01:30:48.000Z,1017.240696
2023-03-04T01:31:23.000Z,1017.240696
2023-03-04T01:31:53.000Z,1017.5454719999999
2023-03-04T01:32:28.000Z,1017.5454719999999
2023-03-04T01:32:58.000Z,1017.5454719999999
2023-03-04T01:33:29.000Z,1017.44388
2023-03-04T01:34:04.000Z,1017.44388
2023-03-04T01:34:34.000Z,1017.44388
2023-03-04T01:35:08.000Z,1017.44388
2023-03-04T01:35:25.000Z,1017.342288
2023-03-04T01:35:52.000Z,1017.342288
2023-03-04T01:36:28.000Z,1017.342288
2023-03-04T01:36:58.000Z,1017.342288
2023-03-04T01:37:28.000Z,1017.342288
2023-03-04T01:38:03.000Z,1017.342288
2023-03-04T01:38:25.000Z,1017.342288
2023-03-04T01:38:48.000Z,1017.342288
2023-03-04T01:39:24.000Z,1017.342288
2023-03-04T01:39:53.000Z,1017.240696
2023-03-04T01:40:28.000Z,1017.44388
2023-03-04T01:40:58.000Z,1017.44388
2023-03-04T01:41:28.000Z,1017.342288
2023-03-04T01:42:13.000Z,1017.342288
2023-03-04T01:42:43.000Z,1017.342288
2023-03-04T01:43:08.000Z,1017.342288
2023-03-04T01:43:38.000Z,1017.1391040000001
2023-03-04T01:44:09.000Z,1017.1391040000001
2023-03-04T01:44:43.000Z,1017.240696
2023-03-04T01:45:13.000Z,1017.240696
2023-03-04T01:45:44.000Z,1017.240696
2023-03-04T01:46:03.000Z,1017.240696
2023-03-04T01:46:25.000Z,1017.240696
2023-03-04T01:46:48.000Z,1017.240696
2023-03-04T01:47:09.000Z,1017.240696
2023-03-04T01:47:36.000Z,1017.1391040000001
2023-03-04T01:48:09.000Z,1017.1391040000001
2023-03-04T01:48:43.000Z,1017.037512
2023-03-04T01:49:15.000Z,1017.037512
2023-03-04T01:49:38.000Z,1017.1391040000001
2023-03-04T01:50:03.000Z,1017.1391040000001
2023-03-04T01:50:28.000Z,1017.1391040000001
2023-03-04T01:50:51.000Z,1017.1391040000001
2023-03-04T01:51:20.000Z,1017.1391040000001
2023-03-04T01:51:45.000Z,1017.342288
2023-03-04T01:52:09.000Z,1017.342288
2023-03-04T01:52:38.000Z,1017.240696
2023-03-04T01:53:01.000Z,1017.240696
2023-03-04T01:53:28.000Z,1017.342288
2023-03-04T01:53:53.000Z,1017.342288
2023-03-04T01:54:19.000Z,1017.342288
2023-03-04T01:54:53.000Z,1017.1391040000001
2023-03-04T01:55:20.000Z,1017.1391040000001
2023-03-04T01:55:38.000Z,1017.240696
2023-03-04T01:56:13.000Z,1017.240696
2023-03-04T01:56:43.000Z,1017.240696
2023-03-04T01:57:13.000Z,1017.240696
2023-03-04T01:57:44.000Z,1017.240696
2023-03-04T01:58:04.000Z,1017.240696
2023-03-04T01:58:25.000Z,1017.342288
2023-03-04T01:58:48.000Z,1017.342288
2023-03-04T01:59:08.000Z,1017.342288
2023-03-04T01:59:38.000Z,1017.240696
2023-03-04T02:00:08.000Z,1017.240696
2023-03-04T02:00:29.000Z,1017.1391040000001
2023-03-04T02:00:58.000Z,1017.1391040000001
2023-03-04T02:01:29.000Z,1017.1391040000001
2023-03-04T02:02:03.000Z,1017.1391040000001
2023-03-04T02:02:25.000Z,1017.1391040000001
2023-03-04T02:02:53.000Z,1017.1391040000001
2023-03-04T02:03:33.000Z,1017.1391040000001
2023-03-04T02:03:56.000Z,1017.1391040000001
2023-03-04T02:04:28.000Z,1017.240696
2023-03-04T02:04:58.000Z,1017.240696
2023-03-04T02:05:28.000Z,1017.240696
2023-03-04T02:05:44.000Z,1017.240696
2023-03-04T02:06:03.000Z,1017.240696
2023-03-04T02:06:23.000Z,1017.1391040000001
2023-03-04T02:06:49.000Z,1017.1391040000001
2023-03-04T02:07:09.000Z,1017.1391040000001
2023-03-04T02:07:38.000Z,1017.1391040000001
2023-03-04T02:08:08.000Z,1017.1391040000001
2023-03-04T02:08:43.000Z,1017.240696
2023-03-04T02:09:14.000Z,1017.240696
2023-03-04T02:09:44.000Z,1017.240696
2023-03-04T02:10:03.000Z,1017.240696
2023-03-04T02:10:28.000Z,1017.037512
2023-03-04T02:10:52.000Z,1017.037512
2023-03-04T02:11:20.000Z,1017.037512
2023-03-04T02:11:44.000Z,1016.834328
2023-03-04T02:12:09.000Z,1016.834328
2023-03-04T02:12:38.000Z,1017.240696
2023-03-04T02:13:02.000Z,1017.240696
2023-03-04T02:13:28.000Z,1017.037512
2023-03-04T02:13:53.000Z,1017.037512
2023-03-04T02:14:20.000Z,1017.037512
2023-03-04T02:14:54.000Z,1016.93592
2023-03-04T02:15:23.000Z,1016.93592
2023-03-04T02:16:03.000Z,1017.1391040000001
2023-03-04T02:16:30.000Z,1016.93592
2023-03-04T02:17:01.000Z,1016.93592
2023-03-04T02:17:28.000Z,1017.1391040000001
2023-03-04T02:18:04.000Z,1017.1391040000001
2023-03-04T02:18:25.000Z,1017.037512
2023-03-04T02:18:49.000Z,1017.037512
2023-03-04T02:19:24.000Z,1017.037512
2023-03-04T02:19:53.000Z,1017.037512
2023-03-04T02:20:28.000Z,1016.93592
2023-03-04T02:20:58.000Z,1016.93592
2023-03-04T02:21:28.000Z,1017.1391040000001
2023-03-04T02:21:44.000Z,1017.1391040000001
2023-03-04T02:22:03.000Z,1017.1391040000001
2023-03-04T02:22:25.000Z,1017.1391040000001
2023-03-04T02:22:48.000Z,1017.1391040000001
2023-03-04T02:23:08.000Z,1017.1391040000001
2023-03-04T02:23:33.000Z,1017.1391040000001
2023-03-04T02:23:56.000Z,1017.1391040000001
2023-03-04T02:24:23.000Z,1017.1391040000001
2023-03-04T02:24:40.000Z,1017.1391040000001
2023-03-04T02:24:58.000Z,1017.1391040000001
2023-03-04T02:25:23.000Z,1017.037512
2023-03-04T02:25:49.000Z,1017.037512
2023-03-04T02:26:18.000Z,1017.037512
2023-03-04T02:26:48.000Z,1016.93592
2023-03-04T02:27:09.000Z,1016.93592
2023-03-04T02:27:38.000Z,1017.1391040000001
2023-03-04T02:28:09.000Z,1017.1391040000001
2023-03-04T02:28:43.000Z,1017.1391040000001
2023-03-04T02:29:13.000Z,1017.1391040000001
2023-03-04T02:29:44.000Z,1017.037512
2023-03-04T02:30:03.000Z,1017.037512
2023-03-04T02:30:25.000Z,1016.93592
2023-03-04T02:30:48.000Z,1016.93592
2023-03-04T02:31:23.000Z,1016.93592
2023-03-04T02:31:53.000Z,1016.732736
2023-03-04T02:32:28.000Z,1016.93592
2023-03-04T02:32:56.000Z,1016.93592
2023-03-04T02:33:23.000Z,1017.037512
2023-03-04T02:33:48.000Z,1017.037512
2023-03-04T02:34:18.000Z,1017.037512
2023-03-04T02:34:48.000Z,1017.037512
2023-03-04T02:35:23.000Z,1017.037512
2023-03-04T02:35:53.000Z,1017.037512
2023-03-04T02:36:28.000Z,1017.1391040000001
2023-03-04T02:36:58.000Z,1017.1391040000001
2023-03-04T02:37:28.000Z,1017.037512
2023-03-04T02:38:03.000Z,1017.037512
2023-03-04T02:38:25.000Z,1017.037512
2023-03-04T02:38:49.000Z,1017.037512
2023-03-04T02:39:20.000Z,1017.037512
2023-03-04T02:39:36.000Z,1017.1391040000001
2023-03-04T02:39:53.000Z,1017.1391040000001
2023-03-04T02:40:38.000Z,1016.834328
2023-03-04T02:41:01.000Z,1016.834328
2023-03-04T02:41:28.000Z,1016.93592
2023-03-04T02:42:03.000Z,1016.93592
2023-03-04T02:42:26.000Z,1016.93592
2023-03-04T02:42:53.000Z,1016.93592
2023-03-04T02:43:33.000Z,1017.240696
2023-03-04T02:43:56.000Z,1017.240696
2023-03-04T02:44:24.000Z,1016.93592
2023-03-04T02:44:40.000Z,1016.93592
2023-03-04T02:45:14.000Z,1016.93592
2023-03-04T02:45:44.000Z,1016.834328
2023-03-04T02:46:03.000Z,1016.834328
2023-03-04T02:46:25.000Z,1017.037512
2023-03-04T02:46:48.000Z,1017.037512
2023-03-04T02:47:23.000Z,1017.037512
2023-03-04T02:47:53.000Z,1016.93592
2023-03-04T02:48:28.000Z,1016.93592
2023-03-04T02:48:58.000Z,1016.93592
2023-03-04T02:49:28.000Z,1017.037512
2023-03-04T02:50:03.000Z,1017.037512
2023-03-04T02:50:25.000Z,1016.93592
2023-03-04T02:50:48.000Z,1016.93592
2023-03-04T02:51:33.000Z,1017.037512
2023-03-04T02:51:56.000Z,1017.037512
2023-03-04T02:52:24.000Z,1017.037512
2023-03-04T02:52:40.000Z,1017.037512
2023-03-04T02:52:58.000Z,1017.037512
2023-03-04T02:53:24.000Z,1016.93592
2023-03-04T02:53:49.000Z,1016.93592
2023-03-04T02:54:18.000Z,1016.93592
2023-03-04T02:54:48.000Z,1016.834328
2023-03-04T02:55:09.000Z,1016.834328
2023-03-04T02:55:38.000Z,1016.93592
2023-03-04T02:56:08.000Z,1016.93592
2023-03-04T02:56:43.000Z,1016.93592
2023-03-04T02:57:13.000Z,1016.93592
2023-03-04T02:57:29.000Z,1016.834328
2023-03-04T02:58:03.000Z,1016.834328
2023-03-04T02:58:25.000Z,1016.834328
2023-03-04T02:58:48.000Z,1016.834328
2023-03-04T02:59:23.000Z,1016.834328
2023-03-04T02:59:53.000Z,1016.834328
2023-03-04T03:00:28.000Z,1016.93592
2023-03-04T03:00:59.000Z,1016.93592
2023-03-04T03:01:28.000Z,1016.834328
2023-03-04T03:01:53.000Z,1016.834328
2023-03-04T03:02:18.000Z,1016.834328
2023-03-04T03:02:48.000Z,1016.834328
2023-03-04T03:03:23.000Z,1016.834328
2023-03-04T03:03:53.000Z,1016.631144
2023-03-04T03:04:28.000Z,1016.732736
2023-03-04T03:04:58.000Z,1016.732736
2023-03-04T03:05:29.000Z,1016.732736
2023-03-04T03:06:03.000Z,1016.732736
2023-03-04T03:06:25.000Z,1016.93592
2023-03-04T03:06:48.000Z,1016.93592
2023-03-04T03:07:09.000Z,1016.93592
2023-03-04T03:07:38.000Z,1016.631144
2023-03-04T03:08:18.000Z,1016.631144
2023-03-04T03:08:52.000Z,1016.732736
2023-03-04T03:09:15.000Z,1016.732736
2023-03-04T03:09:38.000Z,1016.732736
2023-03-04T03:10:03.000Z,1016.732736
2023-03-04T03:10:28.000Z,1016.732736
2023-03-04T03:10:51.000Z,1016.732736
2023-03-04T03:11:24.000Z,1016.732736
2023-03-04T03:11:53.000Z,1016.631144
2023-03-04T03:12:28.000Z,1016.631144
2023-03-04T03:12:58.000Z,1016.631144
2023-03-04T03:13:28.000Z,1016.631144
2023-03-04T03:13:44.000Z,1016.631144
2023-03-04T03:14:03.000Z,1016.631144
2023-03-04T03:14:25.000Z,1016.631144
2023-03-04T03:14:48.000Z,1016.631144
2023-03-04T03:15:23.000Z,1016.631144
2023-03-04T03:15:53.000Z,1016.834328
2023-03-04T03:16:28.000Z,1016.732736
2023-03-04T03:16:58.000Z,1016.732736
2023-03-04T03:17:38.000Z,1016.631144
2023-03-04T03:18:03.000Z,1016.631144
2023-03-04T03:18:28.000Z,1016.5295520000001
2023-03-04T03:18:51.000Z,1016.5295520000001
2023-03-04T03:19:24.000Z,1016.5295520000001
2023-03-04T03:19:53.000Z,1016.5295520000001
2023-03-04T03:20:28.000Z,1016.732736
2023-03-04T03:20:58.000Z,1016.732736
2023-03-04T03:21:28.000Z,1016.5295520000001
2023-03-04T03:21:44.000Z,1016.5295520000001
2023-03-04T03:22:03.000Z,1016.5295520000001
2023-03-04T03:22:38.000Z,1016.631144
2023-03-04T03:23:08.000Z,1016.631144
2023-03-04T03:23:24.000Z,1016.732736
2023-03-04T03:23:53.000Z,1016.732736
2023-03-04T03:24:28.000Z,1016.732736
2023-03-04T03:24:59.000Z,1016.732736
2023-03-04T03:25:28.000Z,1016.631144
2023-03-04T03:25:53.000Z,1016.631144
2023-03-04T03:26:18.000Z,1016.631144
2023-03-04T03:26:48.000Z,1016.5295520000001
2023-03-04T03:27:24.000Z,1016.5295520000001
2023-03-04T03:27:53.000Z,1016.732736
2023-03-04T03:28:29.000Z,1016.732736
2023-03-04T03:28:59.000Z,1016.732736
2023-03-04T03:29:28.000Z,1016.834328
2023-03-04T03:30:03.000Z,1016.834328
2023-03-04T03:30:25.000Z,1016.5295520000001
2023-03-04T03:30:48.000Z,1016.5295520000001
2023-03-04T03:31:09.000Z,1016.5295520000001
2023-03-04T03:31:38.000Z,1016.631144
2023-03-04T03:32:08.000Z,1016.631144
2023-03-04T03:32:38.000Z,1016.631144
2023-03-04T03:33:01.000Z,1016.631144
2023-03-04T03:33:28.000Z,1016.5295520000001
2023-03-04T03:33:53.000Z,1016.5295520000001
2023-03-04T03:34:20.000Z,1016.5295520000001
2023-03-04T03:34:53.000Z,1016.93592
2023-03-04T03:35:33.000Z,1016.5295520000001
2023-03-04T03:35:56.000Z,1016.5295520000001
2023-03-04T03:36:24.000Z,1016.631144
2023-03-04T03:36:40.000Z,1016.631144
2023-03-04T03:36:58.000Z,1016.631144
2023-03-04T03:37:24.000Z,1016.631144
2023-03-04T03:37:49.000Z,1016.631144
2023-03-04T03:38:16.000Z,1016.631144
2023-03-04T03:38:54.000Z,1016.631144
2023-03-04T03:39:23.000Z,1016.631144
2023-03-04T03:39:54.000Z,1016.732736
2023-03-04T03:40:28.000Z,1016.5295520000001
2023-03-04T03:40:58.000Z,1016.5295520000001
2023-03-04T03:41:28.000Z,1016.631144
2023-03-04T03:41:44.000Z,1016.631144
2023-03-04T03:42:04.000Z,1016.631144
2023-03-04T03:42:25.000Z,1016.631144
2023-03-04T03:42:48.000Z,1016.631144
2023-03-04T03:43:24.000Z,1016.631144
2023-03-04T03:43:53.000Z,1016.631144
2023-03-04T03:44:29.000Z,1016.5295520000001
2023-03-04T03:44:58.000Z,1016.5295520000001
2023-03-04T03:45:28.000Z,1016.5295520000001
2023-03-04T03:46:03.000Z,1016.5295520000001
2023-03-04T03:46:26.000Z,1016.5295520000001
2023-03-04T03:46:53.000Z,1016.5295520000001
2023-03-04T03:47:23.000Z,1016.5295520000001
2023-03-04T03:47:53.000Z,1016.732736
2023-03-04T03:48:28.000Z,1016.631144
2023-03-04T03:48:58.000Z,1016.631144
2023-03-04T03:49:28.000Z,1016.42796
2023-03-04T03:49:44.000Z,1016.42796
2023-03-04T03:50:03.000Z,1016.42796
2023-03-04T03:50:25.000Z,1016.631144
2023-03-04T03:50:48.000Z,1016.631144
2023-03-04T03:51:08.000Z,1016.631144
2023-03-04T03:51:39.000Z,1016.5295520000001
2023-03-04T03:52:08.000Z,1016.5295520000001
2023-03-04T03:52:43.000Z,1016.631144
2023-03-04T03:53:13.000Z,1016.631144
2023-03-04T03:53:44.000Z,1016.732736
2023-03-04T03:54:03.000Z,1016.732736
2023-03-04T03:54:28.000Z,1016.631144
2023-03-04T03:54:52.000Z,1016.631144
2023-03-04T03:55:20.000Z,1016.631144
2023-03-04T03:55:44.000Z,1016.5295520000001
2023-03-04T03:56:09.000Z,1016.5295520000001
2023-03-04T03:56:38.000Z,1016.5295520000001
2023-03-04T03:57:02.000Z,1016.5295520000001
2023-03-04T03:57:28.000Z,1016.5295520000001
2023-03-04T03:57:53.000Z,1016.5295520000001
2023-03-04T03:58:18.000Z,1016.5295520000001
2023-03-04T03:58:48.000Z,1016.326368
2023-03-04T03:59:23.000Z,1016.326368
2023-03-04T03:59:53.000Z,1016.732736
2023-03-04T04:00:28.000Z,1016.631144
2023-03-04T04:00:58.000Z,1016.631144
2023-03-04T04:01:28.000Z,1016.631144
2023-03-04T04:02:03.000Z,1016.631144
2023-03-04T04:02:25.000Z,1016.631144
2023-03-04T04:02:49.000Z,1016.631144
2023-03-04T04:03:24.000Z,1016.631144
2023-03-04T04:03:53.000Z,1016.631144
2023-03-04T04:04:38.000Z,1016.631144
2023-03-04T04:05:01.000Z,1016.631144
2023-03-04T04:05:28.000Z,1016.5295520000001
2023-03-04T04:06:03.000Z,1016.5295520000001
2023-03-04T04:06:26.000Z,1016.42796
2023-03-04T04:06:48.000Z,1016.42796
2023-03-04T04:07:23.000Z,1016.42796
2023-03-04T04:07:53.000Z,1016.5295520000001
2023-03-04T04:08:28.000Z,1016.631144
2023-03-04T04:08:58.000Z,1016.631144
2023-03-04T04:09:28.000Z,1016.631144
2023-03-04T04:10:04.000Z,1016.631144
2023-03-04T04:10:25.000Z,1016.5295520000001
2023-03-04T04:10:48.000Z,1016.5295520000001
2023-03-04T04:11:24.000Z,1016.5295520000001
2023-03-04T04:11:53.000Z,1016.326368
2023-03-04T04:12:29.000Z,1016.631144
2023-03-04T04:12:56.000Z,1016.631144
2023-03-04T04:13:23.000Z,1016.631144
2023-03-04T04:13:49.000Z,1016.5295520000001
2023-03-04T04:14:18.000Z,1016.5295520000001
2023-03-04T04:14:53.000Z,1016.42796
2023-03-04T04:15:33.000Z,1016.732736
2023-03-04T04:15:56.000Z,1016.732736
2023-03-04T04:16:24.000Z,1016.5295520000001
2023-03-04T04:16:58.000Z,1016.5295520000001
2023-03-04T04:17:24.000Z,1016.5295520000001
2023-03-04T04:17:49.000Z,1016.5295520000001
2023-03-04T04:18:16.000Z,1016.5295520000001
2023-03-04T04:18:43.000Z,1016.631144
2023-03-04T04:19:09.000Z,1016.631144
2023-03-04T04:19:36.000Z,1016.631144
2023-03-04T04:20:09.000Z,1016.631144
2023-03-04T04:20:43.000Z,1016.42796
2023-03-04T04:21:13.000Z,1016.42796
2023-03-04T04:21:44.000Z,1016.326368
2023-03-04T04:22:03.000Z,1016.326368
2023-03-04T04:22:25.000Z,1016.42796
2023-03-04T04:22:48.000Z,1016.42796
2023-03-04T04:23:23.000Z,1016.42796
2023-03-04T04:23:54.000Z,1016.5295520000001
2023-03-04T04:24:28.000Z,1016.42796
2023-03-04T04:24:58.000Z,1016.42796
2023-03-04T04:25:24.000Z,1016.42796
2023-03-04T04:25:49.000Z,1016.42796
2023-03-04T04:26:18.000Z,1016.42796
2023-03-04T04:26:53.000Z,1016.5295520000001
2023-03-04T04:27:33.000Z,1016.326368
2023-03-04T04:27:56.000Z,1016.326368
2023-03-04T04:28:29.000Z,1016.42796
2023-03-04T04:28:59.000Z,1016.42796
2023-03-04T04:29:28.000Z,1016.631144
2023-03-04T04:30:04.000Z,1016.631144
2023-03-04T04:30:25.000Z,1016.326368
2023-03-04T04:30:48.000Z,1016.326368
2023-03-04T04:31:23.000Z,1016.326368
2023-03-04T04:31:53.000Z,1016.5295520000001
2023-03-04T04:32:29.000Z,1016.631144
2023-03-04T04:33:00.000Z,1016.631144
2023-03-04T04:33:28.000Z,1016.42796
2023-03-04T04:34:04.000Z,1016.42796
2023-03-04T04:34:25.000Z,1016.5295520000001
2023-03-04T04:34:53.000Z,1016.5295520000001
2023-03-04T04:35:33.000Z,1016.42796
2023-03-04T04:35:52.000Z,1016.42796
2023-03-04T04:36:29.000Z,1016.42796
2023-03-04T04:36:59.000Z,1016.42796
2023-03-04T04:37:28.000Z,1016.5295520000001
2023-03-04T04:37:44.000Z,1016.5295520000001
2023-03-04T04:38:03.000Z,1016.5295520000001
2023-03-04T04:38:25.000Z,1016.42796
2023-03-04T04:38:48.000Z,1016.42796
2023-03-04T04:39:09.000Z,1016.42796
2023-03-04T04:39:38.000Z,1016.42796
2023-03-04T04:40:09.000Z,1016.42796
2023-03-04T04:40:43.000Z,1016.326368
2023-03-04T04:41:13.000Z,1016.326368
2023-03-04T04:41:44.000Z,1016.5295520000001
2023-03-04T04:42:03.000Z,1016.5295520000001
2023-03-04T04:42:28.000Z,1016.42796
2023-03-04T04:42:52.000Z,1016.42796
2023-03-04T04:43:20.000Z,1016.42796
2023-03-04T04:43:44.000Z,1016.42796